createdAt,value
2018-07-21T06:33:19.784Z,30.52
2018-07-21T06:34:20.090Z,31.03
2018-07-21T06:35:19.849Z,31.65
2018-07-21T06:36:20.741Z,31.9
2018-07-21T06:37:19.940Z,32.32
2018-07-21T06:38:19.704Z,32.79
2018-07-21T06:39:20.055Z,32.89
2018-07-21T06:40:20.036Z,32.65
2018-07-21T06:41:21.476Z,32.5
2018-07-21T06:42:20.109Z,32.3
2018-07-21T06:43:21.633Z,32.37
2018-07-21T06:44:21.000Z,32.27
2018-07-21T06:45:19.947Z,32.56
2018-07-21T06:46:20.178Z,32.84
2018-07-21T06:47:20.352Z,33.23
2018-07-21T06:48:20.645Z,33.52
2018-07-21T06:49:20.428Z,33.89
2018-07-21T06:50:20.675Z,34.21
2018-07-21T06:51:21.180Z,34.43
2018-07-21T06:52:21.403Z,34.72
2018-07-21T06:53:21.583Z,35.12
2018-07-21T06:54:21.932Z,35.35
2018-07-21T06:55:21.940Z,35.23
2018-07-21T06:56:21.697Z,35.38
2018-07-21T06:57:23.712Z,35.71
2018-07-21T06:58:21.991Z,35.57
2018-07-21T06:59:22.231Z,35.67
2018-07-21T07:00:39.201Z,35.77
2018-07-21T07:01:38.999Z,36.12
2018-07-21T07:02:38.927Z,36.26
2018-07-21T07:03:39.131Z,36.26
2018-07-21T07:04:39.182Z,36.19
2018-07-21T07:05:39.507Z,36.19
2018-07-21T07:06:39.107Z,36.04
2018-07-21T07:07:39.101Z,36.19
2018-07-21T07:08:39.267Z,36.44
2018-07-21T07:09:39.064Z,36.63
2018-07-21T07:10:39.708Z,36.88
2018-07-21T07:11:39.211Z,37.15
2018-07-21T07:12:40.625Z,37.37
2018-07-21T07:13:39.871Z,37.59
2018-07-21T07:14:40.290Z,37.91
2018-07-21T07:15:40.213Z,38.13
2018-07-21T07:16:39.966Z,38.17
2018-07-21T07:17:40.451Z,38.3
2018-07-21T07:18:40.455Z,38.59
2018-07-21T07:19:40.754Z,38.62
2018-07-21T07:20:40.523Z,38.1
2018-07-21T07:21:40.816Z,37.96
2018-07-21T07:22:40.953Z,37.3
2018-07-21T07:23:41.008Z,36.99
2018-07-21T07:24:41.236Z,37.27
2018-07-21T07:25:41.533Z,37.57
2018-07-21T07:26:41.574Z,37.81
2018-07-21T07:27:42.098Z,38.03
2018-07-21T07:28:42.653Z,38.21
2018-07-21T07:29:42.801Z,38.18
2018-07-21T07:30:42.591Z,37.94
2018-07-21T07:31:42.474Z,38.09
2018-07-21T07:32:42.841Z,38.28
2018-07-21T07:33:42.343Z,38.3
2018-07-21T07:34:42.750Z,38.54
2018-07-21T07:35:42.441Z,38.96
2018-07-21T07:36:42.996Z,38.81
2018-07-21T07:37:42.773Z,39.13
2018-07-21T07:38:43.627Z,39.08
2018-07-21T07:39:43.186Z,38.96
2018-07-21T07:40:43.392Z,38.93
2018-07-21T07:41:42.935Z,39.23
2018-07-21T07:42:42.643Z,39.53
2018-07-21T07:43:43.608Z,39.5
2018-07-21T07:44:43.582Z,39.74
2018-07-21T07:45:42.603Z,40.02
2018-07-21T07:46:43.317Z,39.99
2018-07-21T07:47:43.143Z,39.59
2018-07-21T07:48:43.439Z,39.34
2018-07-21T07:49:43.475Z,39.12
2018-07-21T07:50:44.035Z,39.18
2018-07-21T07:51:43.560Z,39.3
2018-07-21T07:52:44.260Z,39.11
2018-07-21T07:53:44.322Z,39.57
2018-07-21T07:54:44.091Z,39.9
2018-07-21T07:55:44.120Z,40.3
2018-07-21T07:56:44.301Z,40.6
2018-07-21T07:57:44.524Z,40.96
2018-07-21T07:58:44.997Z,40.96
2018-07-21T07:59:44.736Z,40.98
2018-07-21T08:00:45.964Z,41.06
2018-07-21T08:01:45.182Z,41.19
2018-07-21T08:02:45.859Z,41.23
2018-07-21T08:03:45.432Z,41.08
2018-07-21T08:04:45.240Z,40.7
2018-07-21T08:05:45.482Z,40.6
2018-07-21T08:06:47.150Z,40.5
2018-07-21T08:07:46.930Z,40.28
2018-07-21T08:08:47.880Z,40.34
2018-07-21T08:09:46.777Z,40.32
2018-07-21T08:10:46.796Z,40.31
2018-07-21T08:11:46.484Z,39.71
2018-07-21T08:12:46.534Z,39.31
2018-07-21T08:13:47.046Z,39.18
2018-07-21T08:14:46.796Z,39.03
2018-07-21T08:15:47.275Z,39.49
2018-07-21T08:16:47.323Z,39.94
2018-07-21T08:17:48.066Z,40.27
2018-07-21T08:18:47.799Z,40.54
2018-07-21T08:19:48.302Z,40.67
2018-07-21T08:20:48.217Z,39.69
2018-07-21T08:21:49.039Z,39.87
2018-07-21T08:22:48.763Z,39.86
2018-07-21T08:23:48.245Z,39.99
2018-07-21T08:24:48.578Z,40.18
2018-07-21T08:25:49.325Z,40.97
2018-07-21T08:26:49.268Z,40.88
2018-07-21T08:27:49.655Z,40.28
2018-07-21T08:28:50.517Z,39.94
2018-07-21T08:29:49.972Z,40.3
2018-07-21T08:30:49.988Z,40.78
2018-07-21T08:31:50.446Z,41.2
2018-07-21T08:32:50.378Z,41
2018-07-21T08:33:50.340Z,41.31
2018-07-21T08:34:51.338Z,41.47
2018-07-21T08:35:51.239Z,41.65
2018-07-21T08:36:51.294Z,41.69
2018-07-21T08:37:51.286Z,41.71
2018-07-21T08:38:51.236Z,41.88
2018-07-21T08:39:51.705Z,41.91
2018-07-21T08:40:51.917Z,42.13
2018-07-21T08:41:52.082Z,42.35
2018-07-21T08:42:52.246Z,42.64
2018-07-21T08:43:51.835Z,42.94
2018-07-21T08:44:52.893Z,43.01
2018-07-21T08:45:52.614Z,43.24
2018-07-21T08:46:52.449Z,43.44
2018-07-21T08:47:52.714Z,43.1
2018-07-21T08:48:52.771Z,42.61
2018-07-21T08:49:53.227Z,42.41
2018-07-21T08:50:52.234Z,41.4
2018-07-21T08:51:52.420Z,41.15
2018-07-21T08:52:52.291Z,40.66
2018-07-21T08:53:52.036Z,40.77
2018-07-21T08:54:52.262Z,40.98
2018-07-21T08:55:52.564Z,41.23
2018-07-21T08:56:52.624Z,41.31
2018-07-21T08:57:52.908Z,41.57
2018-07-21T08:58:53.329Z,41.76
2018-07-21T08:59:53.892Z,41.31
2018-07-21T09:00:53.580Z,41.5
2018-07-21T09:01:53.431Z,41.75
2018-07-21T09:02:53.877Z,42.2
2018-07-21T09:03:53.068Z,42.49
2018-07-21T09:04:54.479Z,42.83
2018-07-21T09:05:53.946Z,42.88
2018-07-21T09:06:54.799Z,42.45
2018-07-21T09:07:53.796Z,41.87
2018-07-21T09:08:53.440Z,41.82
2018-07-21T09:09:54.071Z,42.07
2018-07-21T09:10:53.724Z,41.92
2018-07-21T09:11:54.398Z,41.3
2018-07-21T09:12:54.970Z,41.18
2018-07-21T09:13:55.540Z,41.38
2018-07-21T09:14:54.811Z,41.26
2018-07-21T09:15:54.762Z,41.19
2018-07-21T09:16:54.142Z,40.41
2018-07-21T09:17:55.120Z,40.22
2018-07-21T09:18:58.290Z,40.43
2018-07-21T09:19:54.507Z,40.75
2018-07-21T09:20:54.725Z,40.97
2018-07-21T09:21:55.015Z,41.69
2018-07-21T09:22:55.206Z,41.89
2018-07-21T09:23:55.248Z,41.89
2018-07-21T09:24:55.494Z,41.85
2018-07-21T09:25:56.387Z,41.44
2018-07-21T09:26:56.431Z,40.98
2018-07-21T09:27:56.535Z,40.63
2018-07-21T09:28:56.607Z,40.4
2018-07-21T09:29:56.940Z,40.36
2018-07-21T09:30:56.349Z,39.67
2018-07-21T09:31:56.816Z,39.2
2018-07-21T09:32:56.696Z,38.76
2018-07-21T09:33:57.880Z,38.7
2018-07-21T09:34:57.649Z,38.71
2018-07-21T09:35:57.525Z,38.87
2018-07-21T09:36:57.372Z,38.81
2018-07-21T09:37:57.919Z,39.27
2018-07-21T09:38:58.322Z,39.4
2018-07-21T09:39:59.597Z,39.52
2018-07-21T09:40:59.274Z,39.59
2018-07-21T09:41:58.988Z,39.56
2018-07-21T09:42:58.547Z,39.5
2018-07-21T09:43:58.464Z,38.9
2018-07-21T09:44:58.226Z,38.71
2018-07-21T09:45:58.493Z,38.22
2018-07-21T09:46:58.408Z,38.18
2018-07-21T09:47:59.336Z,38.39
2018-07-21T09:48:59.192Z,38.7
2018-07-21T09:49:59.224Z,38.9
2018-07-21T09:50:59.503Z,39.09
2018-07-21T09:51:59.283Z,39.4
2018-07-21T09:52:59.623Z,39.72
2018-07-21T09:53:59.053Z,39.99
2018-07-21T09:54:59.829Z,40.03
2018-07-21T09:56:00.573Z,40.28
2018-07-21T09:56:59.877Z,40.21
2018-07-21T09:57:59.454Z,39.79
2018-07-21T09:58:59.783Z,39.56
2018-07-21T09:59:59.845Z,39.59
2018-07-21T10:00:59.670Z,39.79
2018-07-21T10:01:59.639Z,40.27
2018-07-21T10:03:00.009Z,40.32
2018-07-21T10:04:00.044Z,40.44
2018-07-21T10:05:00.189Z,40.22
2018-07-21T10:06:00.070Z,40.09
2018-07-21T10:07:00.180Z,40.25
2018-07-21T10:08:00.155Z,39.76
2018-07-21T10:09:00.303Z,39.79
2018-07-21T10:10:00.087Z,39.31
2018-07-21T10:11:00.103Z,39.5
2018-07-21T10:12:00.590Z,39.67
2018-07-21T10:13:00.760Z,40.06
2018-07-21T10:14:01.773Z,40.45
2018-07-21T10:15:01.172Z,40.41
2018-07-21T10:16:01.010Z,39.94
2018-07-21T10:17:01.131Z,39.76
2018-07-21T10:18:01.216Z,38.89
2018-07-21T10:19:00.978Z,38.93
2018-07-21T10:20:01.502Z,39.47
2018-07-21T10:21:01.582Z,39.97
2018-07-21T10:22:02.494Z,40.38
2018-07-21T10:23:01.923Z,40.66
2018-07-21T10:24:02.042Z,40.94
2018-07-21T10:25:02.214Z,41.06
2018-07-21T10:26:03.271Z,41.35
2018-07-21T10:27:02.828Z,41.68
2018-07-21T10:28:02.852Z,41.78
2018-07-21T10:29:02.922Z,41.99
2018-07-21T10:30:02.753Z,42.4
2018-07-21T10:31:03.190Z,42.73
2018-07-21T10:32:02.785Z,43.05
2018-07-21T10:33:03.045Z,43.15
2018-07-21T10:34:03.236Z,43.16
2018-07-21T10:35:04.916Z,43.07
2018-07-21T10:36:03.958Z,42.78
2018-07-21T10:37:03.580Z,41.91
2018-07-21T10:38:03.703Z,40.91
2018-07-21T10:39:03.387Z,40.62
2018-07-21T10:40:04.085Z,39.59
2018-07-21T10:41:03.514Z,39.09
2018-07-21T10:42:03.775Z,39.04
2018-07-21T10:43:04.912Z,39.22
2018-07-21T10:44:03.803Z,39.34
2018-07-21T10:45:04.257Z,39.56
2018-07-21T10:46:03.946Z,39.01
2018-07-21T10:47:04.534Z,38.89
2018-07-21T10:48:04.524Z,39.03
2018-07-21T10:49:05.103Z,39.18
2018-07-21T10:50:05.853Z,39.3
2018-07-21T10:51:05.128Z,39.42
2018-07-21T10:52:05.612Z,39.09
2018-07-21T10:53:05.496Z,38.35
2018-07-21T10:54:06.075Z,37.75
2018-07-21T10:55:06.472Z,37.18
2018-07-21T10:56:07.113Z,36.89
2018-07-21T10:57:06.195Z,36.75
2018-07-21T10:58:06.418Z,36.55
2018-07-21T10:59:06.677Z,36.28
2018-07-21T11:00:22.827Z,35.8
2018-07-21T11:01:09.230Z,35.77
2018-07-21T11:02:08.809Z,35.58
2018-07-21T11:03:11.367Z,35.3
2018-07-21T11:04:10.413Z,35.05
2018-07-21T11:05:09.766Z,34.89
2018-07-21T11:06:11.480Z,34.64
2018-07-21T11:07:10.936Z,34.33
2018-07-21T11:08:11.762Z,33.96
2018-07-21T11:09:13.425Z,33.65
2018-07-21T11:10:12.703Z,33.36
2018-07-21T11:11:14.876Z,32.99
2018-07-21T11:12:11.358Z,32.8
2018-07-21T11:13:11.402Z,32.65
2018-07-21T11:14:11.699Z,32.62
2018-07-21T11:15:11.402Z,32.64
2018-07-21T11:16:12.268Z,32.67
2018-07-21T11:17:13.910Z,32.89
2018-07-21T11:18:22.098Z,33.2
2018-07-21T11:19:13.745Z,33.59
2018-07-21T11:20:14.006Z,34.12
2018-07-21T11:21:14.231Z,35.01
2018-07-21T11:22:14.003Z,35.76
2018-07-21T11:23:14.651Z,36.75
2018-07-21T11:24:14.177Z,37.22
2018-07-21T11:25:15.880Z,37.76
2018-07-21T11:26:13.424Z,38.27
2018-07-21T11:27:15.756Z,38.58
2018-07-21T11:28:14.138Z,39.11
2018-07-21T11:29:14.537Z,39.79
2018-07-21T11:30:15.128Z,40.31
2018-07-21T11:31:14.180Z,40.77
2018-07-21T11:32:15.685Z,40.96
2018-07-21T11:33:14.188Z,40.84
2018-07-21T11:34:14.235Z,40.79
2018-07-21T11:35:16.159Z,40.47
2018-07-21T11:36:17.345Z,40.01
2018-07-21T11:37:14.505Z,39.22
2018-07-21T11:38:15.324Z,38.39
2018-07-21T11:39:14.061Z,37.91
2018-07-21T11:40:15.509Z,37.42
2018-07-21T11:41:19.581Z,36.65
2018-07-21T11:42:16.400Z,35.65
2018-07-21T11:43:16.376Z,35.09
2018-07-21T11:44:18.298Z,34.39
2018-07-21T11:45:22.143Z,33.9
2018-07-21T11:46:20.063Z,33.37
2018-07-21T11:47:15.929Z,33.05
2018-07-21T11:48:17.830Z,32.72
2018-07-21T11:49:16.475Z,32.45
2018-07-21T11:50:17.848Z,32.1
2018-07-21T11:51:17.818Z,31.71
2018-07-21T11:52:15.890Z,31.52
2018-07-21T11:53:19.232Z,31.13
2018-07-21T11:54:21.103Z,30.88
2018-07-21T11:55:17.276Z,30.88
2018-07-21T11:56:17.132Z,30.71
2018-07-21T11:57:18.778Z,30.63
2018-07-21T11:58:16.735Z,30.52
2018-07-21T11:59:21.612Z,30.45
2018-07-21T12:00:15.952Z,30.44
2018-07-21T12:01:16.120Z,30.48
2018-07-21T12:02:16.210Z,30.4
2018-07-21T12:03:16.205Z,30.6
2018-07-21T12:04:16.275Z,30.6
2018-07-21T12:05:16.191Z,30.64
2018-07-21T12:06:16.274Z,30.64
2018-07-21T12:07:16.070Z,30.48
2018-07-21T12:08:16.358Z,30.45
2018-07-21T12:09:15.873Z,30.39
2018-07-21T12:10:16.715Z,30.42
2018-07-21T12:11:16.486Z,30.44
2018-07-21T12:12:16.518Z,30.54
2018-07-21T12:13:17.516Z,30.6
2018-07-21T12:14:17.008Z,30.42
2018-07-21T12:15:17.080Z,30.28
2018-07-21T12:16:17.367Z,30.44
2018-07-21T12:17:17.412Z,30.34
2018-07-21T12:18:17.674Z,30.39
2018-07-21T12:19:17.434Z,30.39
2018-07-21T12:20:18.138Z,30.45
2018-07-21T12:21:18.316Z,30.49
2018-07-21T12:22:18.126Z,30.51
2018-07-21T12:23:18.411Z,30.31
2018-07-21T12:24:18.506Z,30.34
2018-07-21T12:25:18.744Z,30.18
2018-07-21T12:26:19.284Z,30.1
2018-07-21T12:27:19.155Z,30.14
2018-07-21T12:28:19.506Z,30.14
2018-07-21T12:29:19.063Z,30.14
2018-07-21T12:30:19.342Z,30.18
2018-07-21T12:31:19.629Z,30.11
2018-07-21T12:32:19.891Z,30.18
2018-07-21T12:33:20.286Z,30
2018-07-21T12:34:20.404Z,29.92
2018-07-21T12:35:20.538Z,29.89
2018-07-21T12:36:20.570Z,29.82
2018-07-21T12:37:20.337Z,29.77
2018-07-21T12:38:20.399Z,29.7
2018-07-21T12:39:20.448Z,29.75
2018-07-21T12:40:20.994Z,29.66
2018-07-21T12:41:21.330Z,29.67
2018-07-21T12:42:21.366Z,29.63
2018-07-21T12:43:21.448Z,29.61
2018-07-21T12:44:21.418Z,29.61
2018-07-21T12:45:21.375Z,29.61
2018-07-21T12:46:22.294Z,29.6
2018-07-21T12:47:21.944Z,29.61
2018-07-21T12:48:22.155Z,29.63
2018-07-21T12:49:22.513Z,29.67
2018-07-21T12:50:22.275Z,29.57
2018-07-21T12:51:22.188Z,29.61
2018-07-21T12:52:22.232Z,29.52
2018-07-21T12:53:22.029Z,29.35
2018-07-21T12:54:22.079Z,29.2
2018-07-21T12:55:22.657Z,29.06
2018-07-21T12:56:22.773Z,28.97
2018-07-21T12:57:22.870Z,28.85
2018-07-21T12:58:22.596Z,28.72
2018-07-21T12:59:22.781Z,28.65
2018-07-21T13:00:22.816Z,28.72
2018-07-21T13:01:22.981Z,28.54
2018-07-21T13:02:22.757Z,28.51
2018-07-21T13:03:23.996Z,28.48
2018-07-21T13:04:24.017Z,28.51
2018-07-21T13:05:23.438Z,28.46
2018-07-21T13:06:24.187Z,28.58
2018-07-21T13:07:24.278Z,28.61
2018-07-21T13:08:24.342Z,28.65
2018-07-21T13:09:24.357Z,28.78
2018-07-21T13:10:24.289Z,28.8
2018-07-21T13:11:24.017Z,28.85
2018-07-21T13:12:24.672Z,28.9
2018-07-21T13:13:24.736Z,28.91
2018-07-21T13:14:24.710Z,28.88
2018-07-21T13:15:25.280Z,28.85
2018-07-21T13:16:24.996Z,28.78
2018-07-21T13:17:24.914Z,28.82
2018-07-21T13:18:24.569Z,28.7
2018-07-21T13:19:25.335Z,28.78
2018-07-21T13:20:25.593Z,28.79
2018-07-21T13:21:25.922Z,28.86
2018-07-21T13:22:26.307Z,28.78
2018-07-21T13:23:26.932Z,28.94
2018-07-21T13:24:26.931Z,28.94
2018-07-21T13:25:26.991Z,28.95
2018-07-21T13:26:27.018Z,29.03
2018-07-21T13:27:26.757Z,29.06
2018-07-21T13:28:27.083Z,29.08
2018-07-21T13:29:26.875Z,29.13
2018-07-21T13:30:27.161Z,29.15
2018-07-21T13:31:27.199Z,29.18
2018-07-21T13:32:27.047Z,29.24
2018-07-21T13:33:27.936Z,29.23
2018-07-21T13:34:27.827Z,29.3
2018-07-21T13:35:28.109Z,29.2
2018-07-21T13:36:28.348Z,29.2
2018-07-21T13:37:29.177Z,29.26
2018-07-21T13:38:29.058Z,29.21
2018-07-21T13:39:28.461Z,29.35
2018-07-21T13:40:29.030Z,29.47
2018-07-21T13:41:28.977Z,29.45
2018-07-21T13:42:30.248Z,29.69
2018-07-21T13:43:30.097Z,29.72
2018-07-21T13:44:29.742Z,29.69
2018-07-21T13:45:30.303Z,29.63
2018-07-21T13:46:29.827Z,29.61
2018-07-21T13:47:30.452Z,29.6
2018-07-21T13:48:29.985Z,29.51
2018-07-21T13:49:30.508Z,29.57
2018-07-21T13:50:30.283Z,29.58
2018-07-21T13:51:30.701Z,29.54
2018-07-21T13:52:29.687Z,29.58
2018-07-21T13:53:30.235Z,29.61
2018-07-21T13:54:30.548Z,29.69
2018-07-21T13:55:30.417Z,29.61
2018-07-21T13:56:29.809Z,29.4
2018-07-21T13:57:29.874Z,29.3
2018-07-21T13:58:30.210Z,29.13
2018-07-21T13:59:29.234Z,29.05
2018-07-21T14:00:29.537Z,29.06
2018-07-21T14:01:30.112Z,28.98
2018-07-21T14:02:29.848Z,28.98
2018-07-21T14:03:30.462Z,28.88
2018-07-21T14:04:30.376Z,28.94
2018-07-21T14:05:31.090Z,29.02
2018-07-21T14:06:31.003Z,28.85
2018-07-21T14:07:30.423Z,28.86
2018-07-21T14:08:30.961Z,28.86
2018-07-21T14:09:30.699Z,28.85
2018-07-21T14:10:30.760Z,28.9
2018-07-21T14:11:31.049Z,28.88
2018-07-21T14:12:31.141Z,28.91
2018-07-21T14:13:30.644Z,28.92
2018-07-21T14:14:30.320Z,28.92
2018-07-21T14:15:31.592Z,29.02
2018-07-21T14:16:31.249Z,28.98
2018-07-21T14:17:30.849Z,29.01
2018-07-21T14:18:31.166Z,29.11
2018-07-21T14:19:31.389Z,29.15
2018-07-21T14:20:31.195Z,29.11
2018-07-21T14:21:31.702Z,29.06
2018-07-21T14:22:31.078Z,29.01
2018-07-21T14:23:32.129Z,29.03
2018-07-21T14:24:31.669Z,28.94
2018-07-21T14:25:31.408Z,28.86
2018-07-21T14:26:31.328Z,28.8
2018-07-21T14:27:31.598Z,28.68
2018-07-21T14:28:31.799Z,28.63
2018-07-21T14:29:33.004Z,28.64
2018-07-21T14:30:32.869Z,28.73
2018-07-21T14:31:32.691Z,28.53
2018-07-21T14:32:32.549Z,28.49
2018-07-21T14:33:33.077Z,28.55
2018-07-21T14:34:32.770Z,28.39
2018-07-21T14:35:32.748Z,28.36
2018-07-21T14:36:33.813Z,28.43
2018-07-21T14:37:33.206Z,28.39
2018-07-21T14:38:33.080Z,28.41
2018-07-21T14:39:32.882Z,28.38
2018-07-21T14:40:32.168Z,28.28
2018-07-21T14:41:33.048Z,28.3
2018-07-21T14:42:32.496Z,28.2
2018-07-21T14:43:32.815Z,28.28
2018-07-21T14:44:32.666Z,28.16
2018-07-21T14:45:32.489Z,28.16
2018-07-21T14:46:32.789Z,28.2
2018-07-21T14:47:33.223Z,28.09
2018-07-21T14:48:33.253Z,28.11
2018-07-21T14:49:33.535Z,28.14
2018-07-21T14:50:33.328Z,28.14
2018-07-21T14:51:33.606Z,28.08
2018-07-21T14:52:33.430Z,28.14
2018-07-21T14:53:33.915Z,28.12
2018-07-21T14:54:34.772Z,28.18
2018-07-21T14:55:34.344Z,28.21
2018-07-21T14:56:34.645Z,28.2
2018-07-21T14:57:34.380Z,28.2
2018-07-21T14:58:34.675Z,28.27
2018-07-21T14:59:34.485Z,28.18
2018-07-21T15:00:34.584Z,28.17
2018-07-21T15:01:35.278Z,28.23
2018-07-21T15:02:35.276Z,28.2
2018-07-21T15:03:35.303Z,28.21
2018-07-21T15:04:34.904Z,28.21
2018-07-21T15:05:35.842Z,28.16
2018-07-21T15:06:34.814Z,28.16
2018-07-21T15:07:34.867Z,28.11
2018-07-21T15:08:35.540Z,28.09
2018-07-21T15:09:35.341Z,28.06
2018-07-21T15:10:35.551Z,28.08
2018-07-21T15:11:35.747Z,27.96
2018-07-21T15:12:35.403Z,27.96
2018-07-21T15:13:35.450Z,27.96
2018-07-21T15:14:36.099Z,28.02
2018-07-21T15:15:36.114Z,27.91
2018-07-21T15:16:36.345Z,28.03
2018-07-21T15:17:36.408Z,27.93
2018-07-21T15:18:36.125Z,27.93
2018-07-21T15:19:36.398Z,27.87
2018-07-21T15:20:36.194Z,27.87
2018-07-21T15:21:36.245Z,27.79
2018-07-21T15:22:36.562Z,27.83
2018-07-21T15:23:36.631Z,27.75
2018-07-21T15:24:36.647Z,27.64
2018-07-21T15:25:36.413Z,27.66
2018-07-21T15:26:36.584Z,27.64
2018-07-21T15:27:36.578Z,27.66
2018-07-21T15:28:36.626Z,27.69
2018-07-21T15:29:37.077Z,27.65
2018-07-21T15:30:37.062Z,27.59
2018-07-21T15:31:37.016Z,27.69
2018-07-21T15:32:36.834Z,27.66
2018-07-21T15:33:36.826Z,27.66
2018-07-21T15:34:37.129Z,27.65
2018-07-21T15:35:37.334Z,27.62
2018-07-21T15:36:37.303Z,27.62
2018-07-21T15:37:37.287Z,27.57
2018-07-21T15:38:37.585Z,27.62
2018-07-21T15:39:37.361Z,27.46
2018-07-21T15:40:37.641Z,27.43
2018-07-21T15:41:38.067Z,27.52
2018-07-21T15:42:38.749Z,27.48
2018-07-21T15:43:38.707Z,27.46
2018-07-21T15:44:38.715Z,27.52
2018-07-21T15:45:38.590Z,27.51
2018-07-21T15:46:38.420Z,27.46
2018-07-21T15:47:38.776Z,27.42
2018-07-21T15:48:39.012Z,27.41
2018-07-21T15:49:38.786Z,27.45
2018-07-21T15:50:39.283Z,27.36
2018-07-21T15:51:39.164Z,27.33
2018-07-21T15:52:39.852Z,27.42
2018-07-21T15:53:39.536Z,27.26
2018-07-21T15:54:39.873Z,27.28
2018-07-21T15:55:39.995Z,27.28
2018-07-21T15:56:39.825Z,27.11
2018-07-21T15:57:40.170Z,27.09
2018-07-21T15:58:41.012Z,27.09
2018-07-21T15:59:41.470Z,27.05
2018-07-21T16:00:42.023Z,26.97
2018-07-21T16:01:42.110Z,26.96
2018-07-21T16:02:42.359Z,26.97
2018-07-21T16:03:41.645Z,26.97
2018-07-21T16:04:42.259Z,26.97
2018-07-21T16:05:42.184Z,26.97
2018-07-21T16:06:42.330Z,26.97
2018-07-21T16:07:41.826Z,26.99
2018-07-21T16:08:42.954Z,26.99
2018-07-21T16:09:42.981Z,26.97
2018-07-21T16:10:42.542Z,26.9
2018-07-21T16:11:43.017Z,26.97
2018-07-21T16:12:42.969Z,26.97
2018-07-21T16:13:43.223Z,26.94
2018-07-21T16:14:43.270Z,27
2018-07-21T16:15:42.821Z,27.06
2018-07-21T16:16:42.959Z,26.91
2018-07-21T16:17:43.225Z,26.96
2018-07-21T16:18:43.569Z,26.91
2018-07-21T16:19:43.303Z,26.9
2018-07-21T16:20:43.635Z,26.91
2018-07-21T16:21:43.423Z,26.79
2018-07-21T16:22:43.198Z,26.87
2018-07-21T16:23:43.857Z,26.87
2018-07-21T16:24:43.883Z,26.87
2018-07-21T16:25:43.821Z,26.87
2018-07-21T16:26:44.122Z,26.84
2018-07-21T16:27:44.021Z,26.9
2018-07-21T16:28:44.007Z,26.87
2018-07-21T16:29:43.901Z,26.84
2018-07-21T16:30:44.821Z,26.82
2018-07-21T16:31:44.735Z,26.81
2018-07-21T16:32:44.020Z,26.79
2018-07-21T16:33:44.355Z,26.81
2018-07-21T16:34:45.233Z,26.81
2018-07-21T16:35:45.821Z,26.72
2018-07-21T16:36:46.011Z,26.68
2018-07-21T16:37:46.120Z,26.69
2018-07-21T16:38:46.272Z,26.68
2018-07-21T16:39:47.563Z,26.63
2018-07-21T16:40:46.918Z,26.67
2018-07-21T16:41:47.338Z,26.59
2018-07-21T16:42:46.721Z,26.53
2018-07-21T16:43:48.587Z,26.57
2018-07-21T16:44:47.231Z,26.56
2018-07-21T16:45:47.352Z,26.52
2018-07-21T16:46:46.957Z,26.54
2018-07-21T16:47:47.043Z,26.42
2018-07-21T16:48:47.110Z,26.44
2018-07-21T16:49:47.680Z,26.37
2018-07-21T16:50:47.734Z,26.39
2018-07-21T16:51:47.825Z,26.38
2018-07-21T16:52:47.905Z,26.42
2018-07-21T16:53:47.864Z,26.35
2018-07-21T16:54:47.014Z,26.31
2018-07-21T16:55:47.498Z,26.37
2018-07-21T16:56:48.095Z,26.31
2018-07-21T16:57:46.958Z,26.34
2018-07-21T16:58:47.327Z,26.26
2018-07-21T16:59:47.142Z,26.34
2018-07-21T17:00:47.099Z,26.19
2018-07-21T17:01:47.271Z,26.22
2018-07-21T17:02:47.458Z,26.31
2018-07-21T17:03:47.105Z,26.34
2018-07-21T17:04:47.322Z,26.23
2018-07-21T17:05:47.726Z,26.22
2018-07-21T17:06:47.986Z,26.35
2018-07-21T17:07:48.145Z,26.26
2018-07-21T17:08:47.720Z,26.31
2018-07-21T17:09:47.717Z,26.32
2018-07-21T17:10:48.300Z,26.32
2018-07-21T17:11:48.499Z,26.39
2018-07-21T17:12:48.078Z,26.39
2018-07-21T17:13:48.913Z,26.27
2018-07-21T17:14:48.637Z,26.34
2018-07-21T17:15:48.689Z,26.31
2018-07-21T17:16:48.910Z,26.32
2018-07-21T17:17:49.535Z,26.31
2018-07-21T17:18:49.002Z,26.24
2018-07-21T17:19:49.291Z,26.22
2018-07-21T17:20:49.338Z,26.26
2018-07-21T17:21:49.950Z,26.23
2018-07-21T17:22:49.977Z,26.26
2018-07-21T17:23:50.383Z,26.26
2018-07-21T17:24:49.742Z,26.19
2018-07-21T17:25:50.260Z,26.24
2018-07-21T17:26:50.212Z,26.11
2018-07-21T17:27:50.863Z,26.16
2018-07-21T17:28:50.872Z,26.06
2018-07-21T17:29:51.160Z,26.11
2018-07-21T17:30:50.978Z,26.16
2018-07-21T17:31:51.029Z,26
2018-07-21T17:32:50.765Z,26.04
2018-07-21T17:33:51.532Z,26
2018-07-21T17:34:51.987Z,25.96
2018-07-21T17:35:52.199Z,25.94
2018-07-21T17:36:52.015Z,25.99
2018-07-21T17:37:51.939Z,25.82
2018-07-21T17:38:52.560Z,25.78
2018-07-21T17:39:52.566Z,25.93
2018-07-21T17:40:52.581Z,25.86
2018-07-21T17:41:53.071Z,25.89
2018-07-21T17:42:53.696Z,25.88
2018-07-21T17:43:53.676Z,25.78
2018-07-21T17:44:54.108Z,25.88
2018-07-21T17:45:53.684Z,25.89
2018-07-21T17:46:53.723Z,25.85
2018-07-21T17:47:54.025Z,25.76
2018-07-21T17:48:54.005Z,25.74
2018-07-21T17:49:54.723Z,25.75
2018-07-21T17:50:54.812Z,25.79
2018-07-21T17:51:54.777Z,25.76
2018-07-21T17:52:54.929Z,25.71
2018-07-21T17:53:55.163Z,25.75
2018-07-21T17:54:55.407Z,25.67
2018-07-21T17:55:56.188Z,25.62
2018-07-21T17:56:55.631Z,25.66
2018-07-21T17:57:55.759Z,25.64
2018-07-21T17:58:55.725Z,25.71
2018-07-21T17:59:56.135Z,25.7
2018-07-21T18:00:58.139Z,25.7
2018-07-21T18:01:58.760Z,25.63
2018-07-21T18:02:58.681Z,25.63
2018-07-21T18:03:58.481Z,25.63
2018-07-21T18:04:58.598Z,25.74
2018-07-21T18:05:59.032Z,25.63
2018-07-21T18:06:59.080Z,25.6
2018-07-21T18:08:00.151Z,25.54
2018-07-21T18:09:00.070Z,25.59
2018-07-21T18:09:59.990Z,25.56
2018-07-21T18:11:00.495Z,25.59
2018-07-21T18:12:02.655Z,25.56
2018-07-21T18:12:59.065Z,25.52
2018-07-21T18:14:01.766Z,25.51
2018-07-21T18:15:03.902Z,25.45
2018-07-21T18:16:04.370Z,25.42
2018-07-21T18:17:12.325Z,25.42
2018-07-21T18:18:43.188Z,25.47
2018-07-21T18:19:41.787Z,25.38
2018-07-21T18:20:43.475Z,25.34
2018-07-21T18:21:42.212Z,25.32
2018-07-21T18:22:45.935Z,25.27
2018-07-21T18:23:42.331Z,25.23
2018-07-21T18:24:42.941Z,25.3
2018-07-21T18:25:43.369Z,25.27
2018-07-21T18:26:42.655Z,25.2
2018-07-21T18:27:41.577Z,25.19
